sensor_id;sensor_type;location;lat;lon;timestamp;P1;durP1;ratioP1;P2;durP2;ratioP2
27728;SDS011;15126;42.186;24.340;2024-02-23T00:01:35;22.83;;;10.20;;
27728;SDS011;15126;42.186;24.340;2024-02-23T00:04:01;21.42;;;11.35;;
27728;SDS011;15126;42.186;24.340;2024-02-23T00:08:53;21.88;;;12.32;;
27728;SDS011;15126;42.186;24.340;2024-02-23T00:11:20;20.05;;;11.52;;
27728;SDS011;15126;42.186;24.340;2024-02-23T00:13:46;21.90;;;10.75;;
27728;SDS011;15126;42.186;24.340;2024-02-23T00:16:11;23.67;;;11.05;;
27728;SDS011;15126;42.186;24.340;2024-02-23T00:18:37;22.80;;;11.48;;
27728;SDS011;15126;42.186;24.340;2024-02-23T00:23:28;22.30;;;12.10;;
27728;SDS011;15126;42.186;24.340;2024-02-23T00:25:54;25.08;;;12.40;;
27728;SDS011;15126;42.186;24.340;2024-02-23T00:28:19;22.75;;;11.85;;
27728;SDS011;15126;42.186;24.340;2024-02-23T00:30:45;22.85;;;12.85;;
27728;SDS011;15126;42.186;24.340;2024-02-23T00:33:10;23.30;;;11.35;;
27728;SDS011;15126;42.186;24.340;2024-02-23T00:35:36;21.38;;;11.07;;
27728;SDS011;15126;42.186;24.340;2024-02-23T00:38:01;21.30;;;11.10;;
27728;SDS011;15126;42.186;24.340;2024-02-23T00:40:26;20.90;;;10.93;;
27728;SDS011;15126;42.186;24.340;2024-02-23T00:42:53;24.85;;;12.65;;
27728;SDS011;15126;42.186;24.340;2024-02-23T00:45:19;27.02;;;11.98;;
27728;SDS011;15126;42.186;24.340;2024-02-23T00:47:44;28.73;;;12.73;;
27728;SDS011;15126;42.186;24.340;2024-02-23T00:50:12;23.40;;;11.82;;
27728;SDS011;15126;42.186;24.340;2024-02-23T00:52:37;20.55;;;11.02;;
27728;SDS011;15126;42.186;24.340;2024-02-23T00:55:03;24.63;;;12.70;;
27728;SDS011;15126;42.186;24.340;2024-02-23T00:57:29;23.10;;;12.02;;
27728;SDS011;15126;42.186;24.340;2024-02-23T00:59:58;21.45;;;11.43;;
27728;SDS011;15126;42.186;24.340;2024-02-23T01:02:23;21.17;;;10.70;;
27728;SDS011;15126;42.186;24.340;2024-02-23T01:04:49;20.95;;;12.27;;
27728;SDS011;15126;42.186;24.340;2024-02-23T01:07:14;24.27;;;11.88;;
27728;SDS011;15126;42.186;24.340;2024-02-23T01:09:40;22.05;;;11.63;;
27728;SDS011;15126;42.186;24.340;2024-02-23T01:12:05;23.65;;;12.27;;
27728;SDS011;15126;42.186;24.340;2024-02-23T01:14:31;20.67;;;11.68;;
27728;SDS011;15126;42.186;24.340;2024-02-23T01:16:56;19.60;;;11.15;;
27728;SDS011;15126;42.186;24.340;2024-02-23T01:19:22;23.27;;;10.88;;
27728;SDS011;15126;42.186;24.340;2024-02-23T01:21:48;27.83;;;13.07;;
27728;SDS011;15126;42.186;24.340;2024-02-23T01:24:21;21.50;;;11.65;;
27728;SDS011;15126;42.186;24.340;2024-02-23T01:26:46;25.10;;;11.82;;
27728;SDS011;15126;42.186;24.340;2024-02-23T01:29:12;25.08;;;10.82;;
27728;SDS011;15126;42.186;24.340;2024-02-23T01:31:37;24.90;;;13.25;;
27728;SDS011;15126;42.186;24.340;2024-02-23T01:34:03;25.65;;;11.95;;
27728;SDS011;15126;42.186;24.340;2024-02-23T01:36:28;27.17;;;12.05;;
27728;SDS011;15126;42.186;24.340;2024-02-23T01:38:54;21.98;;;11.27;;
27728;SDS011;15126;42.186;24.340;2024-02-23T01:41:20;33.03;;;12.10;;
27728;SDS011;15126;42.186;24.340;2024-02-23T01:43:45;30.85;;;11.98;;
27728;SDS011;15126;42.186;24.340;2024-02-23T01:46:10;25.15;;;11.27;;
27728;SDS011;15126;42.186;24.340;2024-02-23T01:48:36;22.02;;;11.38;;
27728;SDS011;15126;42.186;24.340;2024-02-23T01:51:02;22.23;;;11.77;;
27728;SDS011;15126;42.186;24.340;2024-02-23T01:53:28;21.65;;;11.27;;
27728;SDS011;15126;42.186;24.340;2024-02-23T01:55:53;22.83;;;11.20;;
27728;SDS011;15126;42.186;24.340;2024-02-23T01:58:20;23.52;;;11.35;;
27728;SDS011;15126;42.186;24.340;2024-02-23T02:00:46;22.30;;;11.00;;
27728;SDS011;15126;42.186;24.340;2024-02-23T02:03:11;26.42;;;10.57;;
27728;SDS011;15126;42.186;24.340;2024-02-23T02:05:36;21.45;;;10.43;;
27728;SDS011;15126;42.186;24.340;2024-02-23T02:08:02;19.75;;;9.65;;
27728;SDS011;15126;42.186;24.340;2024-02-23T02:10:29;28.77;;;11.70;;
27728;SDS011;15126;42.186;24.340;2024-02-23T02:12:54;25.75;;;10.85;;
27728;SDS011;15126;42.186;24.340;2024-02-23T02:15:20;28.60;;;11.75;;
27728;SDS011;15126;42.186;24.340;2024-02-23T02:17:47;27.02;;;11.48;;
27728;SDS011;15126;42.186;24.340;2024-02-23T02:22:38;24.83;;;12.73;;
27728;SDS011;15126;42.186;24.340;2024-02-23T02:25:05;28.35;;;11.50;;
27728;SDS011;15126;42.186;24.340;2024-02-23T02:27:31;26.85;;;10.95;;
27728;SDS011;15126;42.186;24.340;2024-02-23T02:29:57;25.38;;;12.55;;
27728;SDS011;15126;42.186;24.340;2024-02-23T02:32:23;24.88;;;12.05;;
27728;SDS011;15126;42.186;24.340;2024-02-23T02:34:49;24.52;;;11.65;;
27728;SDS011;15126;42.186;24.340;2024-02-23T02:37:14;22.60;;;10.38;;
27728;SDS011;15126;42.186;24.340;2024-02-23T02:39:40;20.65;;;11.20;;
27728;SDS011;15126;42.186;24.340;2024-02-23T02:42:05;23.52;;;12.40;;
27728;SDS011;15126;42.186;24.340;2024-02-23T02:44:31;24.75;;;10.77;;
27728;SDS011;15126;42.186;24.340;2024-02-23T02:46:57;19.48;;;8.88;;
27728;SDS011;15126;42.186;24.340;2024-02-23T02:49:23;19.25;;;8.98;;
27728;SDS011;15126;42.186;24.340;2024-02-23T02:51:48;19.60;;;9.57;;
27728;SDS011;15126;42.186;24.340;2024-02-23T02:54:16;22.98;;;10.88;;
27728;SDS011;15126;42.186;24.340;2024-02-23T02:56:43;19.85;;;9.40;;
27728;SDS011;15126;42.186;24.340;2024-02-23T02:59:10;19.95;;;9.73;;
27728;SDS011;15126;42.186;24.340;2024-02-23T03:01:36;29.33;;;13.15;;
27728;SDS011;15126;42.186;24.340;2024-02-23T03:04:01;23.73;;;11.52;;
27728;SDS011;15126;42.186;24.340;2024-02-23T03:06:27;21.33;;;9.88;;
27728;SDS011;15126;42.186;24.340;2024-02-23T03:08:52;24.88;;;11.82;;
27728;SDS011;15126;42.186;24.340;2024-02-23T03:11:19;23.10;;;10.40;;
27728;SDS011;15126;42.186;24.340;2024-02-23T03:13:45;25.30;;;11.30;;
27728;SDS011;15126;42.186;24.340;2024-02-23T03:16:16;23.10;;;10.13;;
27728;SDS011;15126;42.186;24.340;2024-02-23T03:18:43;21.25;;;9.93;;
27728;SDS011;15126;42.186;24.340;2024-02-23T03:21:09;15.27;;;9.07;;
27728;SDS011;15126;42.186;24.340;2024-02-23T03:23:35;20.35;;;10.52;;
27728;SDS011;15126;42.186;24.340;2024-02-23T03:26:01;21.92;;;10.57;;
27728;SDS011;15126;42.186;24.340;2024-02-23T03:28:27;24.63;;;11.15;;
27728;SDS011;15126;42.186;24.340;2024-02-23T03:30:52;33.03;;;12.68;;
27728;SDS011;15126;42.186;24.340;2024-02-23T03:33:18;24.50;;;12.98;;
27728;SDS011;15126;42.186;24.340;2024-02-23T03:35:43;25.60;;;12.70;;
27728;SDS011;15126;42.186;24.340;2024-02-23T03:38:09;24.00;;;12.35;;
27728;SDS011;15126;42.186;24.340;2024-02-23T03:40:34;23.90;;;12.50;;
27728;SDS011;15126;42.186;24.340;2024-02-23T03:45:27;31.58;;;13.20;;
27728;SDS011;15126;42.186;24.340;2024-02-23T03:47:52;23.92;;;13.30;;
27728;SDS011;15126;42.186;24.340;2024-02-23T03:50:18;23.85;;;10.88;;
27728;SDS011;15126;42.186;24.340;2024-02-23T03:52:43;27.00;;;10.77;;
27728;SDS011;15126;42.186;24.340;2024-02-23T03:55:09;24.60;;;12.00;;
27728;SDS011;15126;42.186;24.340;2024-02-23T03:57:34;22.92;;;11.10;;
27728;SDS011;15126;42.186;24.340;2024-02-23T04:00:00;21.17;;;10.30;;
27728;SDS011;15126;42.186;24.340;2024-02-23T04:02:25;20.42;;;11.00;;
27728;SDS011;15126;42.186;24.340;2024-02-23T04:04:51;21.85;;;9.95;;
27728;SDS011;15126;42.186;24.340;2024-02-23T04:07:16;19.23;;;10.20;;
27728;SDS011;15126;42.186;24.340;2024-02-23T04:09:42;17.30;;;9.93;;
27728;SDS011;15126;42.186;24.340;2024-02-23T04:12:07;21.25;;;10.80;;
27728;SDS011;15126;42.186;24.340;2024-02-23T04:14:33;22.73;;;9.35;;
27728;SDS011;15126;42.186;24.340;2024-02-23T04:17:04;19.05;;;9.60;;
27728;SDS011;15126;42.186;24.340;2024-02-23T04:19:30;17.50;;;9.02;;
27728;SDS011;15126;42.186;24.340;2024-02-23T04:21:55;18.23;;;9.00;;
27728;SDS011;15126;42.186;24.340;2024-02-23T04:24:21;17.75;;;9.05;;
27728;SDS011;15126;42.186;24.340;2024-02-23T04:26:49;16.60;;;9.85;;
27728;SDS011;15126;42.186;24.340;2024-02-23T04:29:14;23.02;;;9.70;;
27728;SDS011;15126;42.186;24.340;2024-02-23T04:31:40;21.88;;;9.80;;
27728;SDS011;15126;42.186;24.340;2024-02-23T04:34:05;18.83;;;8.63;;
27728;SDS011;15126;42.186;24.340;2024-02-23T04:36:31;18.80;;;9.48;;
27728;SDS011;15126;42.186;24.340;2024-02-23T04:38:56;18.90;;;9.63;;
27728;SDS011;15126;42.186;24.340;2024-02-23T04:41:21;22.58;;;11.18;;
27728;SDS011;15126;42.186;24.340;2024-02-23T04:43:47;20.35;;;10.93;;
27728;SDS011;15126;42.186;24.340;2024-02-23T04:46:32;28.10;;;10.48;;
27728;SDS011;15126;42.186;24.340;2024-02-23T04:48:59;26.77;;;11.52;;
27728;SDS011;15126;42.186;24.340;2024-02-23T04:51:25;24.98;;;13.10;;
27728;SDS011;15126;42.186;24.340;2024-02-23T04:53:50;39.65;;;16.15;;
27728;SDS011;15126;42.186;24.340;2024-02-23T04:56:16;37.03;;;16.83;;
27728;SDS011;15126;42.186;24.340;2024-02-23T04:58:43;52.78;;;22.52;;
27728;SDS011;15126;42.186;24.340;2024-02-23T05:01:09;48.05;;;20.63;;
27728;SDS011;15126;42.186;24.340;2024-02-23T05:03:36;42.65;;;19.60;;
27728;SDS011;15126;42.186;24.340;2024-02-23T05:06:07;31.50;;;14.23;;
27728;SDS011;15126;42.186;24.340;2024-02-23T05:08:32;29.67;;;15.18;;
27728;SDS011;15126;42.186;24.340;2024-02-23T05:11:02;29.50;;;15.80;;
27728;SDS011;15126;42.186;24.340;2024-02-23T05:13:30;29.58;;;16.00;;
27728;SDS011;15126;42.186;24.340;2024-02-23T05:15:56;26.38;;;13.00;;
27728;SDS011;15126;42.186;24.340;2024-02-23T05:18:25;27.10;;;14.45;;
27728;SDS011;15126;42.186;24.340;2024-02-23T05:20:53;23.30;;;11.93;;
27728;SDS011;15126;42.186;24.340;2024-02-23T05:23:19;21.40;;;10.73;;
27728;SDS011;15126;42.186;24.340;2024-02-23T05:25:44;22.10;;;10.90;;
27728;SDS011;15126;42.186;24.340;2024-02-23T05:28:10;19.70;;;11.32;;
27728;SDS011;15126;42.186;24.340;2024-02-23T05:30:35;21.42;;;10.10;;
27728;SDS011;15126;42.186;24.340;2024-02-23T05:33:02;20.27;;;10.13;;
27728;SDS011;15126;42.186;24.340;2024-02-23T05:35:28;22.20;;;11.18;;
27728;SDS011;15126;42.186;24.340;2024-02-23T05:37:54;23.98;;;11.60;;
27728;SDS011;15126;42.186;24.340;2024-02-23T05:40:21;29.88;;;13.23;;
27728;SDS011;15126;42.186;24.340;2024-02-23T05:42:46;28.88;;;13.38;;
27728;SDS011;15126;42.186;24.340;2024-02-23T05:45:14;30.00;;;13.88;;
27728;SDS011;15126;42.186;24.340;2024-02-23T05:47:43;24.20;;;11.60;;
27728;SDS011;15126;42.186;24.340;2024-02-23T05:50:08;24.63;;;12.38;;
27728;SDS011;15126;42.186;24.340;2024-02-23T05:52:34;20.48;;;9.95;;
27728;SDS011;15126;42.186;24.340;2024-02-23T05:55:01;21.23;;;11.18;;
27728;SDS011;15126;42.186;24.340;2024-02-23T05:57:27;20.80;;;10.30;;
27728;SDS011;15126;42.186;24.340;2024-02-23T05:59:53;24.70;;;10.45;;
27728;SDS011;15126;42.186;24.340;2024-02-23T06:02:18;33.55;;;14.80;;
27728;SDS011;15126;42.186;24.340;2024-02-23T06:04:44;26.15;;;12.25;;
27728;SDS011;15126;42.186;24.340;2024-02-23T06:07:10;35.55;;;14.38;;
27728;SDS011;15126;42.186;24.340;2024-02-23T06:09:36;36.50;;;15.75;;
27728;SDS011;15126;42.186;24.340;2024-02-23T06:12:01;41.15;;;16.60;;
27728;SDS011;15126;42.186;24.340;2024-02-23T06:14:27;48.33;;;18.15;;
27728;SDS011;15126;42.186;24.340;2024-02-23T06:16:53;40.45;;;16.67;;
27728;SDS011;15126;42.186;24.340;2024-02-23T06:19:19;43.70;;;17.42;;
27728;SDS011;15126;42.186;24.340;2024-02-23T06:21:48;39.80;;;15.25;;
27728;SDS011;15126;42.186;24.340;2024-02-23T06:24:14;34.50;;;16.67;;
27728;SDS011;15126;42.186;24.340;2024-02-23T06:26:41;19.27;;;11.10;;
27728;SDS011;15126;42.186;24.340;2024-02-23T06:29:06;18.58;;;9.65;;
27728;SDS011;15126;42.186;24.340;2024-02-23T06:31:33;18.27;;;8.93;;
27728;SDS011;15126;42.186;24.340;2024-02-23T06:34:02;20.08;;;10.52;;
27728;SDS011;15126;42.186;24.340;2024-02-23T06:36:30;21.67;;;9.38;;
27728;SDS011;15126;42.186;24.340;2024-02-23T06:38:55;25.80;;;11.82;;
27728;SDS011;15126;42.186;24.340;2024-02-23T06:41:21;21.80;;;11.70;;
27728;SDS011;15126;42.186;24.340;2024-02-23T06:46:12;22.67;;;11.85;;
27728;SDS011;15126;42.186;24.340;2024-02-23T06:48:38;19.63;;;10.55;;
27728;SDS011;15126;42.186;24.340;2024-02-23T06:51:04;24.52;;;11.13;;
27728;SDS011;15126;42.186;24.340;2024-02-23T06:53:34;23.92;;;11.07;;
27728;SDS011;15126;42.186;24.340;2024-02-23T06:56:00;20.08;;;11.45;;
27728;SDS011;15126;42.186;24.340;2024-02-23T06:58:26;18.92;;;11.48;;
27728;SDS011;15126;42.186;24.340;2024-02-23T07:00:51;24.63;;;11.50;;
27728;SDS011;15126;42.186;24.340;2024-02-23T07:03:17;24.52;;;11.10;;
27728;SDS011;15126;42.186;24.340;2024-02-23T07:05:43;24.58;;;10.70;;
27728;SDS011;15126;42.186;24.340;2024-02-23T07:08:12;19.75;;;10.45;;
27728;SDS011;15126;42.186;24.340;2024-02-23T07:10:38;25.23;;;11.35;;
27728;SDS011;15126;42.186;24.340;2024-02-23T07:13:03;17.13;;;9.75;;
27728;SDS011;15126;42.186;24.340;2024-02-23T07:15:29;16.98;;;9.52;;
27728;SDS011;15126;42.186;24.340;2024-02-23T07:17:57;24.33;;;11.40;;
27728;SDS011;15126;42.186;24.340;2024-02-23T07:20:23;23.50;;;10.55;;
27728;SDS011;15126;42.186;24.340;2024-02-23T07:22:49;17.75;;;10.73;;
27728;SDS011;15126;42.186;24.340;2024-02-23T07:25:18;22.58;;;11.27;;
27728;SDS011;15126;42.186;24.340;2024-02-23T07:27:50;17.83;;;9.52;;
27728;SDS011;15126;42.186;24.340;2024-02-23T07:30:15;15.07;;;9.50;;
27728;SDS011;15126;42.186;24.340;2024-02-23T07:32:46;19.00;;;8.52;;
27728;SDS011;15126;42.186;24.340;2024-02-23T07:37:37;15.32;;;7.78;;
27728;SDS011;15126;42.186;24.340;2024-02-23T07:42:32;14.35;;;7.50;;
27728;SDS011;15126;42.186;24.340;2024-02-23T07:45:00;15.85;;;7.40;;
27728;SDS011;15126;42.186;24.340;2024-02-23T07:47:29;25.08;;;8.68;;
27728;SDS011;15126;42.186;24.340;2024-02-23T07:49:56;13.93;;;8.48;;
27728;SDS011;15126;42.186;24.340;2024-02-23T07:54:53;14.18;;;7.82;;
27728;SDS011;15126;42.186;24.340;2024-02-23T07:57:19;14.40;;;7.65;;
27728;SDS011;15126;42.186;24.340;2024-02-23T07:59:47;24.52;;;10.40;;
27728;SDS011;15126;42.186;24.340;2024-02-23T08:02:19;14.35;;;7.82;;
27728;SDS011;15126;42.186;24.340;2024-02-23T08:04:44;14.43;;;7.60;;
27728;SDS011;15126;42.186;24.340;2024-02-23T08:07:12;15.73;;;7.47;;
27728;SDS011;15126;42.186;24.340;2024-02-23T08:12:03;15.73;;;8.07;;
27728;SDS011;15126;42.186;24.340;2024-02-23T08:14:29;14.20;;;7.53;;
27728;SDS011;15126;42.186;24.340;2024-02-23T08:16:58;25.90;;;13.00;;
27728;SDS011;15126;42.186;24.340;2024-02-23T08:19:23;30.95;;;13.60;;
27728;SDS011;15126;42.186;24.340;2024-02-23T08:21:49;23.88;;;11.93;;
27728;SDS011;15126;42.186;24.340;2024-02-23T08:26:40;13.70;;;7.07;;
27728;SDS011;15126;42.186;24.340;2024-02-23T08:29:11;17.08;;;8.85;;
27728;SDS011;15126;42.186;24.340;2024-02-23T08:31:39;19.50;;;8.13;;
27728;SDS011;15126;42.186;24.340;2024-02-23T08:34:04;15.00;;;8.80;;
27728;SDS011;15126;42.186;24.340;2024-02-23T08:36:32;14.95;;;8.23;;
27728;SDS011;15126;42.186;24.340;2024-02-23T08:38:57;18.40;;;8.55;;
27728;SDS011;15126;42.186;24.340;2024-02-23T08:41:23;15.02;;;7.90;;
27728;SDS011;15126;42.186;24.340;2024-02-23T08:43:51;16.13;;;7.82;;
27728;SDS011;15126;42.186;24.340;2024-02-23T08:46:17;14.27;;;8.50;;
27728;SDS011;15126;42.186;24.340;2024-02-23T08:48:43;22.35;;;10.52;;
27728;SDS011;15126;42.186;24.340;2024-02-23T08:51:09;14.50;;;8.90;;
27728;SDS011;15126;42.186;24.340;2024-02-23T08:56:00;18.77;;;8.98;;
27728;SDS011;15126;42.186;24.340;2024-02-23T08:58:28;18.60;;;10.23;;
27728;SDS011;15126;42.186;24.340;2024-02-23T09:00:56;17.42;;;9.73;;
27728;SDS011;15126;42.186;24.340;2024-02-23T09:03:32;17.75;;;9.57;;
27728;SDS011;15126;42.186;24.340;2024-02-23T09:05:57;19.48;;;11.43;;
27728;SDS011;15126;42.186;24.340;2024-02-23T09:08:23;15.73;;;9.27;;
27728;SDS011;15126;42.186;24.340;2024-02-23T09:10:48;19.58;;;9.48;;
27728;SDS011;15126;42.186;24.340;2024-02-23T09:13:15;17.73;;;9.32;;
27728;SDS011;15126;42.186;24.340;2024-02-23T09:15:40;18.85;;;9.98;;
27728;SDS011;15126;42.186;24.340;2024-02-23T09:18:08;19.00;;;10.00;;
27728;SDS011;15126;42.186;24.340;2024-02-23T09:20:37;16.08;;;9.30;;
27728;SDS011;15126;42.186;24.340;2024-02-23T09:23:03;15.10;;;8.85;;
27728;SDS011;15126;42.186;24.340;2024-02-23T09:25:28;15.02;;;9.27;;
27728;SDS011;15126;42.186;24.340;2024-02-23T09:27:57;16.35;;;9.15;;
27728;SDS011;15126;42.186;24.340;2024-02-23T09:30:23;17.88;;;9.68;;
27728;SDS011;15126;42.186;24.340;2024-02-23T09:32:48;18.23;;;10.18;;
27728;SDS011;15126;42.186;24.340;2024-02-23T09:35:14;18.65;;;9.77;;
27728;SDS011;15126;42.186;24.340;2024-02-23T09:37:39;17.00;;;9.52;;
27728;SDS011;15126;42.186;24.340;2024-02-23T09:40:05;16.42;;;8.75;;
27728;SDS011;15126;42.186;24.340;2024-02-23T09:42:34;16.23;;;9.40;;
27728;SDS011;15126;42.186;24.340;2024-02-23T09:45:00;17.02;;;10.73;;
27728;SDS011;15126;42.186;24.340;2024-02-23T09:47:30;15.20;;;8.57;;
27728;SDS011;15126;42.186;24.340;2024-02-23T09:49:56;14.90;;;8.82;;
27728;SDS011;15126;42.186;24.340;2024-02-23T09:52:23;14.10;;;8.98;;
27728;SDS011;15126;42.186;24.340;2024-02-23T09:54:48;15.02;;;7.97;;
27728;SDS011;15126;42.186;24.340;2024-02-23T09:57:15;16.00;;;8.50;;
27728;SDS011;15126;42.186;24.340;2024-02-23T09:59:47;13.88;;;8.00;;
27728;SDS011;15126;42.186;24.340;2024-02-23T10:02:14;20.90;;;10.15;;
27728;SDS011;15126;42.186;24.340;2024-02-23T10:04:42;17.60;;;9.50;;
27728;SDS011;15126;42.186;24.340;2024-02-23T10:07:14;13.93;;;8.45;;
27728;SDS011;15126;42.186;24.340;2024-02-23T10:09:41;15.77;;;9.52;;
27728;SDS011;15126;42.186;24.340;2024-02-23T10:12:06;13.52;;;8.95;;
27728;SDS011;15126;42.186;24.340;2024-02-23T10:14:32;16.75;;;8.98;;
27728;SDS011;15126;42.186;24.340;2024-02-23T10:16:58;16.67;;;9.15;;
27728;SDS011;15126;42.186;24.340;2024-02-23T10:19:27;15.95;;;9.32;;
27728;SDS011;15126;42.186;24.340;2024-02-23T10:21:54;13.98;;;9.18;;
27728;SDS011;15126;42.186;24.340;2024-02-23T10:24:28;16.25;;;10.00;;
27728;SDS011;15126;42.186;24.340;2024-02-23T10:26:53;17.92;;;10.65;;
27728;SDS011;15126;42.186;24.340;2024-02-23T10:29:20;18.30;;;9.95;;
27728;SDS011;15126;42.186;24.340;2024-02-23T10:31:46;25.15;;;13.40;;
27728;SDS011;15126;42.186;24.340;2024-02-23T10:34:14;20.85;;;9.38;;
27728;SDS011;15126;42.186;24.340;2024-02-23T10:36:47;16.50;;;9.00;;
27728;SDS011;15126;42.186;24.340;2024-02-23T10:39:15;15.60;;;9.00;;
27728;SDS011;15126;42.186;24.340;2024-02-23T10:41:53;16.65;;;9.85;;
27728;SDS011;15126;42.186;24.340;2024-02-23T10:44:23;16.02;;;9.85;;
27728;SDS011;15126;42.186;24.340;2024-02-23T10:46:50;17.13;;;8.93;;
27728;SDS011;15126;42.186;24.340;2024-02-23T10:49:16;14.38;;;9.13;;
27728;SDS011;15126;42.186;24.340;2024-02-23T10:51:46;17.52;;;9.23;;
27728;SDS011;15126;42.186;24.340;2024-02-23T10:54:14;22.40;;;11.45;;
27728;SDS011;15126;42.186;24.340;2024-02-23T10:56:42;17.13;;;10.27;;
27728;SDS011;15126;42.186;24.340;2024-02-23T10:59:11;18.50;;;9.43;;
27728;SDS011;15126;42.186;24.340;2024-02-23T11:01:42;25.48;;;9.82;;
27728;SDS011;15126;42.186;24.340;2024-02-23T11:04:08;18.42;;;8.45;;
27728;SDS011;15126;42.186;24.340;2024-02-23T11:06:35;18.58;;;9.00;;
27728;SDS011;15126;42.186;24.340;2024-02-23T11:09:07;14.07;;;8.20;;
27728;SDS011;15126;42.186;24.340;2024-02-23T11:11:34;12.73;;;8.20;;
27728;SDS011;15126;42.186;24.340;2024-02-23T11:14:02;16.17;;;8.82;;
27728;SDS011;15126;42.186;24.340;2024-02-23T11:16:28;12.70;;;8.02;;
27728;SDS011;15126;42.186;24.340;2024-02-23T11:19:06;15.10;;;9.15;;
27728;SDS011;15126;42.186;24.340;2024-02-23T11:21:37;18.55;;;11.15;;
27728;SDS011;15126;42.186;24.340;2024-02-23T11:24:04;16.92;;;8.23;;
27728;SDS011;15126;42.186;24.340;2024-02-23T11:26:30;10.98;;;7.60;;
27728;SDS011;15126;42.186;24.340;2024-02-23T11:28:58;14.73;;;8.60;;
27728;SDS011;15126;42.186;24.340;2024-02-23T11:31:34;12.65;;;8.07;;
27728;SDS011;15126;42.186;24.340;2024-02-23T11:34:09;12.02;;;7.70;;
27728;SDS011;15126;42.186;24.340;2024-02-23T11:36:34;13.48;;;6.57;;
27728;SDS011;15126;42.186;24.340;2024-02-23T11:39:01;10.45;;;6.63;;
27728;SDS011;15126;42.186;24.340;2024-02-23T11:41:28;12.50;;;7.18;;
27728;SDS011;15126;42.186;24.340;2024-02-23T11:43:57;11.43;;;7.45;;
27728;SDS011;15126;42.186;24.340;2024-02-23T11:46:25;16.58;;;9.52;;
27728;SDS011;15126;42.186;24.340;2024-02-23T11:48:51;12.88;;;7.15;;
27728;SDS011;15126;42.186;24.340;2024-02-23T11:51:22;20.98;;;7.35;;
27728;SDS011;15126;42.186;24.340;2024-02-23T11:53:52;12.45;;;5.97;;
27728;SDS011;15126;42.186;24.340;2024-02-23T11:56:23;9.77;;;5.68;;
27728;SDS011;15126;42.186;24.340;2024-02-23T11:58:48;11.00;;;6.45;;
27728;SDS011;15126;42.186;24.340;2024-02-23T12:01:14;19.67;;;6.30;;
27728;SDS011;15126;42.186;24.340;2024-02-23T12:03:43;8.10;;;4.82;;
27728;SDS011;15126;42.186;24.340;2024-02-23T12:06:09;9.10;;;5.35;;
27728;SDS011;15126;42.186;24.340;2024-02-23T12:08:35;7.18;;;4.78;;
27728;SDS011;15126;42.186;24.340;2024-02-23T12:11:07;9.27;;;5.78;;
27728;SDS011;15126;42.186;24.340;2024-02-23T12:13:35;7.72;;;5.03;;
27728;SDS011;15126;42.186;24.340;2024-02-23T12:16:01;7.18;;;4.55;;
27728;SDS011;15126;42.186;24.340;2024-02-23T12:18:28;8.68;;;5.30;;
27728;SDS011;15126;42.186;24.340;2024-02-23T12:21:06;9.18;;;5.38;;
27728;SDS011;15126;42.186;24.340;2024-02-23T12:23:44;10.68;;;6.00;;
27728;SDS011;15126;42.186;24.340;2024-02-23T12:26:12;8.10;;;5.53;;
27728;SDS011;15126;42.186;24.340;2024-02-23T12:28:47;10.20;;;6.72;;
27728;SDS011;15126;42.186;24.340;2024-02-23T12:31:13;9.50;;;5.57;;
27728;SDS011;15126;42.186;24.340;2024-02-23T12:33:38;9.00;;;5.75;;
27728;SDS011;15126;42.186;24.340;2024-02-23T12:36:06;9.68;;;6.28;;
27728;SDS011;15126;42.186;24.340;2024-02-23T12:38:32;18.00;;;10.25;;
27728;SDS011;15126;42.186;24.340;2024-02-23T12:41:00;11.95;;;6.57;;
27728;SDS011;15126;42.186;24.340;2024-02-23T12:43:26;13.95;;;6.78;;
27728;SDS011;15126;42.186;24.340;2024-02-23T12:45:54;11.20;;;5.93;;
27728;SDS011;15126;42.186;24.340;2024-02-23T12:48:21;12.27;;;6.65;;
27728;SDS011;15126;42.186;24.340;2024-02-23T12:50:47;11.10;;;7.97;;
27728;SDS011;15126;42.186;24.340;2024-02-23T12:56:17;14.32;;;7.60;;
27728;SDS011;15126;42.186;24.340;2024-02-23T12:58:43;14.25;;;8.45;;
27728;SDS011;15126;42.186;24.340;2024-02-23T13:01:14;11.95;;;7.20;;
27728;SDS011;15126;42.186;24.340;2024-02-23T13:03:40;11.40;;;7.03;;
27728;SDS011;15126;42.186;24.340;2024-02-23T13:06:06;13.68;;;7.03;;
27728;SDS011;15126;42.186;24.340;2024-02-23T13:08:38;13.48;;;7.85;;
27728;SDS011;15126;42.186;24.340;2024-02-23T13:11:05;13.30;;;7.82;;
27728;SDS011;15126;42.186;24.340;2024-02-23T13:13:31;14.70;;;7.57;;
27728;SDS011;15126;42.186;24.340;2024-02-23T13:15:57;14.48;;;7.10;;
27728;SDS011;15126;42.186;24.340;2024-02-23T13:18:22;11.05;;;6.57;;
27728;SDS011;15126;42.186;24.340;2024-02-23T13:20:48;14.23;;;7.53;;
27728;SDS011;15126;42.186;24.340;2024-02-23T13:23:14;15.65;;;7.53;;
27728;SDS011;15126;42.186;24.340;2024-02-23T13:25:40;14.85;;;7.60;;
27728;SDS011;15126;42.186;24.340;2024-02-23T13:28:07;12.88;;;7.55;;
27728;SDS011;15126;42.186;24.340;2024-02-23T13:30:33;12.20;;;6.90;;
27728;SDS011;15126;42.186;24.340;2024-02-23T13:33:00;11.68;;;6.90;;
27728;SDS011;15126;42.186;24.340;2024-02-23T13:35:26;12.50;;;6.85;;
27728;SDS011;15126;42.186;24.340;2024-02-23T13:37:52;12.52;;;7.80;;
27728;SDS011;15126;42.186;24.340;2024-02-23T13:40:18;14.48;;;8.50;;
27728;SDS011;15126;42.186;24.340;2024-02-23T13:42:44;13.55;;;8.82;;
27728;SDS011;15126;42.186;24.340;2024-02-23T13:45:18;14.88;;;7.82;;
27728;SDS011;15126;42.186;24.340;2024-02-23T13:47:59;13.02;;;7.45;;
27728;SDS011;15126;42.186;24.340;2024-02-23T13:50:27;11.40;;;7.10;;
27728;SDS011;15126;42.186;24.340;2024-02-23T13:52:53;13.48;;;7.72;;
27728;SDS011;15126;42.186;24.340;2024-02-23T13:55:19;13.73;;;8.10;;
27728;SDS011;15126;42.186;24.340;2024-02-23T13:57:47;15.13;;;7.45;;
27728;SDS011;15126;42.186;24.340;2024-02-23T14:00:14;13.75;;;6.97;;
27728;SDS011;15126;42.186;24.340;2024-02-23T14:02:41;13.77;;;7.57;;
27728;SDS011;15126;42.186;24.340;2024-02-23T14:05:07;14.70;;;8.15;;
27728;SDS011;15126;42.186;24.340;2024-02-23T14:07:35;16.30;;;7.75;;
27728;SDS011;15126;42.186;24.340;2024-02-23T14:10:01;10.95;;;6.82;;
27728;SDS011;15126;42.186;24.340;2024-02-23T14:12:32;14.77;;;7.00;;
27728;SDS011;15126;42.186;24.340;2024-02-23T14:14:57;12.63;;;7.35;;
27728;SDS011;15126;42.186;24.340;2024-02-23T14:17:26;15.60;;;8.13;;
27728;SDS011;15126;42.186;24.340;2024-02-23T14:19:52;12.88;;;7.78;;
27728;SDS011;15126;42.186;24.340;2024-02-23T14:22:17;14.48;;;6.97;;
27728;SDS011;15126;42.186;24.340;2024-02-23T14:24:45;12.10;;;6.97;;
27728;SDS011;15126;42.186;24.340;2024-02-23T14:27:11;11.30;;;6.88;;
27728;SDS011;15126;42.186;24.340;2024-02-23T14:29:42;18.20;;;7.22;;
27728;SDS011;15126;42.186;24.340;2024-02-23T14:32:12;18.55;;;8.27;;
27728;SDS011;15126;42.186;24.340;2024-02-23T14:34:41;17.10;;;8.32;;
27728;SDS011;15126;42.186;24.340;2024-02-23T14:37:10;15.27;;;7.60;;
27728;SDS011;15126;42.186;24.340;2024-02-23T14:39:35;18.08;;;7.18;;
27728;SDS011;15126;42.186;24.340;2024-02-23T14:42:01;13.75;;;7.60;;
27728;SDS011;15126;42.186;24.340;2024-02-23T14:44:27;13.77;;;6.55;;